Station: Hindmarsh Island  

  Atmospheric Gas Attenuation - ITU Rec 676-11   ----------------- dB/100km -----------------
Date Time Temp RH % AH g/m3 Dew Point Wind Direction Speed kph Gust kph Barometer mB Rainfall Since 9am 24GHz 47GHz 76GHz 122GHz 134GHz 241GHz
01/09 04:20 10.5 78 7.57 6.8 17 20 1018.3 0 17.5 25.4 37.5 98.1 89.1 305.5
01/09 04:10 10.5 78 7.57 6.8 19 22 1018.4 0 17.5 25.4 37.5 98.1 89.1 305.5
01/09 04:00 10.3 79 7.57 6.8 17 20 1018.5 0 17.5 25.4 37.6 98.4 89.4 306.3
01/09 03:50 10.4 78 7.52 6.7 17 19 1018.6 0 17.4 25.3 37.3 97.7 88.6 303.6
01/09 03:40 10.5 77 7.47 6.6 17 19 1018.7 0 17.3 25.2 37.1 97.1 87.8 300.9
01/09 03:30 10.4 79 7.62 6.9 17 20 1018.8 0 17.6 25.5 37.7 98.8 89.9 308.3
01/09 03:20 10.1 79 7.47 6.6 15 17 1019.1 0 17.3 25.3 37.3 97.6 88.3 302.5
01/09 03:10 10.1 78 7.38 6.4 15 17 1019.2 0 17.1 25.2 36.9 96.7 87.1 298.4
01/09 03:00 10.3 79 7.57 6.8 15 17 1019.3 0 17.5 25.5 37.6 98.5 89.4 306.5
01/09 02:50 10.5 79 7.66 7 17 19 1019.5 0 17.7 25.6 37.9 99.2 90.4 310.0
01/09 02:40 10.4 77 7.42 6.5 15 17 1019.7 0 17.2 25.2 37.0 96.8 87.3 299.2
01/09 02:30 10.7 74 7.27 6.3 15 17 1019.9 0 16.9 24.9 36.2 94.8 85.0 291.2
01/09 02:20 11.1 74 7.46 6.6 15 19 1020 0 17.3 25.1 36.8 96.4 87.1 298.5
01/09 02:10 11.5 74 7.64 7 15 19 1020.2 0 17.6 25.3 37.4 97.8 89.0 305.3
01/09 02:00 11.5 72 7.44 6.6 17 20 1020.4 0 17.2 24.9 36.6 95.7 86.4 296.1
01/09 01:50 11.3 73 7.45 6.6 15 19 1020.5 0 17.2 25.0 36.7 96.1 86.8 297.4
01/09 01:40 11.5 72 7.44 6.6 17 20 1020.7 0 17.2 25.0 36.6 95.7 86.4 296.2
01/09 01:30 11.8 75 7.89 7.5 17 24 1020.9 0 18.2 25.6 38.3 100.2 92.1 315.9
01/09 01:20 11.4 76 7.8 7.3 17 20 1020.9 0 18.0 25.6 38.1 99.7 91.3 313.3
01/09 01:10 11.4 74 7.6 6.9 17 20 1021.2 0 17.6 25.3 37.3 97.6 88.7 304.1
01/09 01:00 11.2 74 7.5 6.7 17 20 1021.3 0 17.4 25.2 37.0 96.8 87.6 300.3
01/09 00:50 11.1 76 7.66 7 17 20 1021.5 0 17.7 25.5 37.7 98.7 89.9 308.1
01/09 00:40 11.2 74 7.5 6.7 17 20 1021.7 0 17.4 25.2 37.0 96.9 87.6 300.4
01/09 00:30 11.3 73 7.45 6.6 17 20 1021.8 0 17.2 25.1 36.8 96.2 86.9 297.7
01/09 00:20 11.9 72 7.63 7 17 20 1022 0 17.6 25.2 37.2 97.4 88.6 303.8
01/09 00:09 11.7 73 7.64 7 17 19 1022 0 17.6 25.3 37.4 97.8 88.9 305.0
01/09 00:00 12.2 69 7.45 6.7 19 26 1022.1 0 17.2 24.8 36.4 95.1 85.9 294.4
31/08 23:50 12.4 69 7.54 6.9 17 26 1022.1 0 17.4 24.9 36.6 95.9 86.9 297.8
31/08 23:40 13 68 7.71 7.2 20 26 1022.5 0 17.7 25.0 37.0 97.0 88.4 303.3
31/08 23:30 11.8 75 7.89 7.5 17 20 1022.5 0 18.2 25.7 38.3 100.4 92.2 316.3
31/08 23:20 12 77 8.21 8.1 17 20 1022.8 0 18.8 26.1 39.5 103.6 96.2 330.6
31/08 23:10 11.7 82 8.58 8.7 17 20 1023 0 19.6 26.9 41.2 108.1 101.7 349.5
31/08 23:00 11.6 83 8.63 8.8 15 19 1023.2 0 19.8 27.0 41.5 108.8 102.5 352.4
31/08 22:50 11.7 87 9.1 9.6 15 17 1023.4 0 20.8 27.8 43.4 114.0 108.9 374.7
31/08 22:40 12.4 84 9.18 9.8 17 19 1023.5 0 20.9 27.7 43.4 113.9 109.0 375.3
31/08 22:30 11.7 87 9.1 9.6 19 20 1023.5 0 20.8 27.8 43.4 114.0 108.9 374.8
31/08 22:20 11.4 88 9.03 9.5 17 19 1023.6 0 20.6 27.7 43.3 113.6 108.3 372.8
31/08 22:10 11.6 88 9.15 9.7 15 17 1023.8 0 20.9 27.9 43.7 114.7 109.7 377.8
31/08 22:00 11.9 88 9.32 10 15 17 1023.9 0 21.2 28.1 44.3 116.2 111.7 384.7
31/08 21:50 11.8 88 9.26 9.9 13 15 1023.9 0 21.1 28.0 44.1 115.7 111.0 382.2
31/08 21:40 12 87 9.27 9.9 13 15 1024.1 0 21.1 28.0 44.0 115.5 110.9 381.8
31/08 21:30 12.3 87 9.45 10.2 11 15 1024.1 0 21.5 28.2 44.6 117.1 113.0 389.1
31/08 21:20 12.7 89 9.91 10.9 13 15 1024.2 0 22.4 28.9 46.4 121.8 118.8 409.7
31/08 21:10 12.7 89 9.91 10.9 13 17 1024.1 0 22.4 28.8 46.4 121.8 118.8 409.7
31/08 21:00 12.8 90 10.08 11.2 15 17 1024.2 0 22.8 29.1 47.0 123.6 121.1 417.6
31/08 20:50 12.8 89 9.97 11 11 13 1024.4 0 22.6 28.9 46.6 122.4 119.6 412.2
31/08 20:40 13 90 10.21 11.4 11 11 1024.5 0 23.1 29.3 47.5 124.8 122.7 423.1
31/08 20:30 13.1 91 10.38 11.7 11 13 1024.6 0 23.4 29.6 48.2 126.6 124.9 431.1
31/08 20:20 13.4 91 10.58 12 9 11 1024.6 0 23.8 29.8 48.9 128.5 127.3 439.4
31/08 20:10 13.5 90 10.53 11.9 9 13 1024.7 0 23.7 29.7 48.6 127.7 126.4 436.3
31/08 20:00 13.9 90 10.79 12.3 6 7 1024.7 0 24.3 30.0 49.5 130.1 129.5 447.1
31/08 19:50 13.7 89 10.54 11.9 6 6 1024.7 0 23.7 29.6 48.5 127.5 126.2 435.7
31/08 19:40 14.2 88 10.75 12.2 7 7 1024.8 0 24.2 29.8 49.1 129.1 128.4 443.4
31/08 19:30 14.4 87 10.75 12.3 7 7 1024.9 0 24.1 29.8 49.0 128.8 128.1 442.3
31/08 19:20 14.5 86 10.7 12.2 7 7 1025 0 24.0 29.7 48.7 128.1 127.2 439.2
31/08 19:10 14.7 85 10.7 12.2 6 7 1025 0 24.0 29.6 48.6 127.8 126.9 438.1
31/08 19:00 14.6 84 10.51 11.9 9 9 1025 0 23.6 29.3 47.8 125.7 124.4 429.3
31/08 18:50 14.9 85 10.83 12.4 6 9 1025 0 24.3 29.7 49.0 128.9 128.4 443.4
31/08 18:40 14.7 86 10.83 12.4 9 13 1025.1 0 24.3 29.8 49.2 129.3 128.7 444.6
31/08 18:30 14.5 87 10.82 12.4 13 17 1025.1 0 24.3 29.9 49.2 129.5 128.9 445.2
31/08 18:20 14.5 87 10.82 12.4 13 17 1025 0 24.3 29.9 49.2 129.5 128.9 445.2
31/08 18:10 14.9 87 11.09 12.8 13 17 1025.1 0 24.8 30.2 50.2 131.9 132.1 456.4
31/08 18:00 15.3 86 11.23 13 11 15 1025.1 0 25.1 30.3 50.5 132.9 133.4 461.0
31/08 17:50 16 83 11.31 13.1 15 17 1025.1 0 25.2 30.2 50.4 132.6 133.3 460.8
31/08 17:40 16.8 78 11.15 12.9 15 20 1025.1 0 24.8 29.7 49.2 129.4 129.7 448.2
31/08 17:30 17.8 71 10.78 12.5 9 17 1025 0 24.0 28.7 47.0 123.7 123.0 424.8
31/08 17:20 19.2 51 8.41 8.8 11 15 1025 0 18.9 24.5 37.0 96.9 90.4 311.1
31/08 17:10 19.3 53 8.79 9.5 13 19 1024.9 0 19.7 25.1 38.4 100.5 95.0 327.1
31/08 17:00 19.6 51 8.61 9.2 13 17 1024.9 0 19.3 24.7 37.5 98.4 92.4 318.1
31/08 16:50 19.7 52 8.83 9.6 11 17 1024.9 0 19.8 25.0 38.3 100.4 95.0 327.2
31/08 16:40 19.9 53 9.11 10 13 19 1024.8 0 20.4 25.4 39.3 103.0 98.2 338.5
31/08 16:30 20.1 51 8.86 9.7 13 20 1025 0 19.8 25.0 38.3 100.2 94.9 326.9
31/08 16:20 20.4 53 9.38 10.5 13 20 1025 0 20.9 25.7 40.1 105.1 101.0 348.2
31/08 16:10 20.3 52 9.14 10.1 17 20 1025.1 0 20.4 25.3 39.2 102.8 98.1 338.2
31/08 16:00 20.5 50 8.9 9.7 15 20 1025.3 0 19.9 24.9 38.2 100.2 94.9 327.1
31/08 15:50 20.3 50 8.79 9.5 17 22 1025.4 0 19.7 24.8 37.9 99.3 93.8 323.2
31/08 15:40 20.4 50 8.84 9.6 20 26 1025.5 0 19.8 24.9 38.1 99.7 94.3 324.9
31/08 15:30 20.4 50 8.84 9.6 19 26 1025.6 0 19.8 24.9 38.1 99.7 94.3 325.0
31/08 15:20 20.5 45 8.01 8.2 19 24 1025.8 0 18.0 23.6 35.0 91.5 84.2 289.5
31/08 15:10 20.7 50 9 9.9 19 26 1025.8 0 20.1 25.0 38.5 101.0 96.0 330.7
31/08 15:00 20.7 48 8.64 9.3 20 26 1025.9 0 19.3 24.5 37.2 97.4 91.6 315.3
31/08 14:50 20.6 48 8.59 9.2 20 26 1026 0 19.2 24.4 37.1 97.0 91.1 313.6
31/08 14:40 20.5 49 8.72 9.4 19 26 1026.1 0 19.5 24.7 37.6 98.5 92.8 319.6
31/08 14:30 20.8 50 9.05 10 19 24 1026.3 0 20.2 25.1 38.7 101.4 96.5 332.6
31/08 14:20 21.2 51 9.45 10.7 17 24 1026.4 0 21.0 25.6 40.0 104.9 100.9 348.2
31/08 14:10 20.6 48 8.59 9.2 17 22 1026.6 0 19.2 24.5 37.1 97.1 91.1 313.7
31/08 14:00 20.5 61 10.85 12.7 15 20 1026.9 0 24.0 28.0 45.8 120.5 119.8 414.3
31/08 13:50 20.2 62 10.84 12.7 15 19 1027.1 0 24.0 28.1 46.0 120.8 120.2 415.4
31/08 13:40 19.7 64 10.87 12.7 15 20 1027.3 0 24.1 28.3 46.4 121.9 121.4 419.5
31/08 13:30 20.1 65 11.3 13.3 17 22 1027.4 0 25.0 28.9 47.9 126.0 126.5 437.5
31/08 13:20 19.1 66 10.82 12.6 19 22 1027.7 0 24.0 28.4 46.6 122.4 121.7 420.5
31/08 13:10 18.7 69 11.05 12.9 19 22 1028 0 24.5 29.0 47.8 125.6 125.5 433.7
31/08 13:00 18.8 71 11.43 13.4 17 24 1028.2 0 25.3 29.6 49.3 129.6 130.5 451.3
31/08 12:50 18.4 72 11.32 13.3 15 20 1028.4 0 25.1 29.5 49.1 129.1 129.7 448.4
31/08 12:40 18.3 75 11.73 13.8 13 20 1028.7 0 26.0 30.3 50.9 133.9 135.6 468.9
31/08 12:30 18.1 73 11.28 13.2 13 17 1028.9 0 25.0 29.6 49.1 129.2 129.7 448.3
31/08 12:20 17 74 10.71 12.3 13 17 1029.2 0 23.9 29.0 47.4 124.6 123.7 427.2
31/08 12:10 17.3 76 11.2 13 13 19 1029.4 0 24.9 29.7 49.3 129.7 130.0 449.2
31/08 12:00 17 76 11 12.7 13 20 1029.6 0 24.5 29.5 48.7 127.9 127.7 441.3
31/08 11:50 17 78 11.29 13.1 15 20 1029.7 0 25.1 30.0 49.9 131.2 131.8 455.5

Last Refresh: 01-Sep-2026 04:28:21

Bureau of Meteorology